createdAt,value
2022-11-16T00:02:22.637Z,68.06
2022-11-16T00:06:39.264Z,67.67
2022-11-16T00:10:55.531Z,67.22
2022-11-16T00:15:11.794Z,66.62
2022-11-16T00:19:28.795Z,66.48
2022-11-16T00:23:45.030Z,66.42
2022-11-16T00:28:01.297Z,67.97
2022-11-16T00:32:17.439Z,67.67
2022-11-16T00:36:33.573Z,68.11
2022-11-16T00:40:49.821Z,67.99
2022-11-16T00:45:06.356Z,67.71
2022-11-16T00:49:22.584Z,67.41
2022-11-16T00:53:39.086Z,67.31
2022-11-16T00:57:55.309Z,67.50
2022-11-16T01:02:12.953Z,65.63
2022-11-16T01:06:29.124Z,67.24
2022-11-16T01:10:45.402Z,67.88
2022-11-16T01:15:01.562Z,66.86
2022-11-16T01:19:17.726Z,68.78
2022-11-16T01:23:33.913Z,67.72
2022-11-16T01:27:50.125Z,66.20
2022-11-16T01:32:06.838Z,65.97
2022-11-16T01:36:23.339Z,66.63
2022-11-16T01:40:39.569Z,65.58
2022-11-16T01:45:00.347Z,66.07
2022-11-16T01:49:20.737Z,68.23
2022-11-16T01:53:37.990Z,67.12
2022-11-16T01:57:54.873Z,67.83
2022-11-16T02:02:11.157Z,68.57
2022-11-16T02:06:32.517Z,68.24
2022-11-16T02:10:57.577Z,68.00
2022-11-16T02:15:35.932Z,67.87
2022-11-16T02:20:13.858Z,67.79
2022-11-16T02:24:49.350Z,67.96
2022-11-16T02:29:12.073Z,67.74
2022-11-16T02:33:35.631Z,67.64
2022-11-16T02:37:56.642Z,68.43
2022-11-16T02:42:17.550Z,69.92
2022-11-16T02:46:37.658Z,68.56
2022-11-16T02:50:54.197Z,69.95
2022-11-16T02:55:10.357Z,70.21
2022-11-16T02:59:42.459Z,69.14
2022-11-16T03:04:16.536Z,69.14
2022-11-16T03:08:38.720Z,68.43
2022-11-16T03:12:55.007Z,69.75
2022-11-16T03:17:21.703Z,67.72
2022-11-16T03:21:45.698Z,68.04
2022-11-16T03:26:05.449Z,69.05
2022-11-16T03:30:32.196Z,68.03
2022-11-16T03:35:02.637Z,69.86
2022-11-16T03:39:28.892Z,67.75
2022-11-16T03:43:45.752Z,68.58
2022-11-16T03:48:01.943Z,68.67
2022-11-16T03:52:19.248Z,67.67
2022-11-16T03:56:35.370Z,68.74
2022-11-16T04:00:51.712Z,69.09
2022-11-16T04:05:26.628Z,67.60
2022-11-16T04:10:01.483Z,67.97
2022-11-16T04:14:41.683Z,67.90
2022-11-16T04:19:16.154Z,68.72
2022-11-16T04:23:51.203Z,68.75
2022-11-16T04:28:13.783Z,68.39
2022-11-16T04:32:48.888Z,70.20
2022-11-16T04:37:23.536Z,70.60
2022-11-16T04:41:58.268Z,68.99
2022-11-16T04:46:37.615Z,68.18
2022-11-16T04:50:53.838Z,68.73
2022-11-16T04:55:10.632Z,69.17
2022-11-16T04:59:27.112Z,67.99
2022-11-16T05:03:43.345Z,69.37
2022-11-16T05:07:59.581Z,68.73
2022-11-16T05:12:19.032Z,69.38
2022-11-16T05:16:35.265Z,69.65
2022-11-16T05:21:00.852Z,68.87
2022-11-16T05:25:17.011Z,68.68
2022-11-16T05:29:33.934Z,68.75
2022-11-16T05:33:50.051Z,69.51
2022-11-16T05:38:06.389Z,70.20
2022-11-16T05:42:22.829Z,69.52
2022-11-16T05:46:39.182Z,70.08
2022-11-16T05:51:00.102Z,69.62
2022-11-16T05:55:16.363Z,69.05
2022-11-16T05:59:32.595Z,69.42
2022-11-16T06:03:48.800Z,69.42
2022-11-16T06:08:05.710Z,68.67
2022-11-16T06:12:21.805Z,68.85
2022-11-16T06:16:37.982Z,69.34
2022-11-16T06:20:54.362Z,68.89
2022-11-16T06:25:11.219Z,68.75
2022-11-16T06:29:27.390Z,68.62
2022-11-16T06:33:43.536Z,68.18
2022-11-16T06:37:59.728Z,69.02
2022-11-16T06:42:15.857Z,68.46
2022-11-16T06:46:32.851Z,69.57
2022-11-16T06:50:50.065Z,68.78
2022-11-16T06:55:06.685Z,69.61
2022-11-16T06:59:22.881Z,69.25
2022-11-16T07:03:39.022Z,69.94
2022-11-16T07:07:58.584Z,69.51
2022-11-16T07:12:14.825Z,69.06
2022-11-16T07:16:31.116Z,70.40
2022-11-16T07:20:47.289Z,69.84
2022-11-16T07:25:03.590Z,70.13
2022-11-16T07:29:21.719Z,70.48
2022-11-16T07:33:38.174Z,69.79
2022-11-16T07:37:54.321Z,67.72
2022-11-16T07:42:12.168Z,68.34
2022-11-16T07:51:07.154Z,68.11
2022-11-16T07:55:25.849Z,67.98
2022-11-16T07:59:42.001Z,67.86
2022-11-16T08:03:58.525Z,68.54
2022-11-16T08:08:14.636Z,67.45
2022-11-16T08:12:31.368Z,68.42
2022-11-16T08:16:47.567Z,67.42
2022-11-16T08:21:04.866Z,68.78
2022-11-16T08:25:20.945Z,68.16
2022-11-16T08:29:37.134Z,69.45
2022-11-16T08:33:53.521Z,69.70
2022-11-16T08:38:09.631Z,71.24
2022-11-16T08:42:25.918Z,69.83
2022-11-16T08:46:42.030Z,68.58
2022-11-16T08:51:20.594Z,68.86
2022-11-16T08:55:37.344Z,69.71
2022-11-16T08:59:53.470Z,68.21
2022-11-16T09:04:09.742Z,68.71
2022-11-16T09:08:25.933Z,70.56
2022-11-16T09:12:42.200Z,69.26
2022-11-16T09:16:58.422Z,69.13
2022-11-16T09:21:23.374Z,69.59
2022-11-16T09:25:39.565Z,69.26
2022-11-16T09:29:55.804Z,68.96
2022-11-16T09:34:12.286Z,68.64
2022-11-16T09:38:40.581Z,68.76
2022-11-16T09:43:29.320Z,68.69
2022-11-16T09:48:02.492Z,69.29
2022-11-16T09:52:41.245Z,68.36
2022-11-16T09:57:06.770Z,67.74
2022-11-16T10:01:35.265Z,68.40
2022-11-16T10:06:05.622Z,67.75
2022-11-16T10:10:35.072Z,67.81
2022-11-16T10:15:26.712Z,68.38
2022-11-16T10:20:07.625Z,68.16
2022-11-16T10:24:42.689Z,67.06
2022-11-16T10:29:33.929Z,67.38
2022-11-16T10:33:52.158Z,67.37
2022-11-16T10:38:17.399Z,67.07
2022-11-16T10:42:37.299Z,66.48
2022-11-16T10:47:23.205Z,66.86
2022-11-16T10:51:39.465Z,67.92
2022-11-16T10:56:17.854Z,67.05
2022-11-16T11:00:47.079Z,67.75
2022-11-16T11:05:20.444Z,66.29
2022-11-16T11:09:37.757Z,66.10
2022-11-16T11:14:19.945Z,66.07
2022-11-16T11:18:36.111Z,66.19
2022-11-16T11:22:57.236Z,65.85
2022-11-16T11:27:13.660Z,65.74
2022-11-16T11:31:50.787Z,65.36
2022-11-16T11:36:19.387Z,66.02
2022-11-16T11:40:36.371Z,65.21
2022-11-16T11:44:57.357Z,66.14
2022-11-16T11:49:33.920Z,67.13
2022-11-16T11:53:58.877Z,67.32
2022-11-16T11:58:19.639Z,66.16
2022-11-16T12:02:47.827Z,67.02
2022-11-16T12:07:32.025Z,67.18
2022-11-16T12:12:16.324Z,65.81
2022-11-16T12:16:35.576Z,65.57
2022-11-16T12:20:57.691Z,66.23
2022-11-16T12:25:35.387Z,64.84
2022-11-16T12:30:03.548Z,66.41
2022-11-16T12:34:37.832Z,66.41
2022-11-16T12:39:31.713Z,66.62
2022-11-16T12:43:54.717Z,66.66
2022-11-16T12:48:38.517Z,65.70
2022-11-16T12:53:00.672Z,64.56
2022-11-16T12:57:57.891Z,65.83
2022-11-16T13:02:51.537Z,68.63
2022-11-16T13:07:26.296Z,68.00
2022-11-16T13:11:47.356Z,67.67
2022-11-16T13:16:05.558Z,67.55
2022-11-16T13:20:32.092Z,67.64
2022-11-16T13:24:58.752Z,67.25
2022-11-16T13:29:53.330Z,68.39
2022-11-16T13:34:23.068Z,68.26
2022-11-16T13:38:53.360Z,66.99
2022-11-16T13:43:13.026Z,69.13
2022-11-16T13:47:30.718Z,67.97
2022-11-16T13:52:11.324Z,68.41
2022-11-16T13:56:49.177Z,67.94
2022-11-16T14:01:09.141Z,68.17
2022-11-16T14:05:34.236Z,68.15
2022-11-16T14:09:50.611Z,68.68
2022-11-16T14:14:10.425Z,67.75
2022-11-16T14:18:37.351Z,67.46
2022-11-16T14:23:17.001Z,68.31
2022-11-16T14:27:43.131Z,68.32
2022-11-16T14:32:01.698Z,67.68
2022-11-16T14:36:18.130Z,68.70
2022-11-16T14:40:49.322Z,69.09
2022-11-16T14:45:14.378Z,68.85
2022-11-16T14:49:33.675Z,67.57
2022-11-16T14:53:53.324Z,67.99
2022-11-16T14:58:16.629Z,67.88
2022-11-16T15:02:33.365Z,69.00
2022-11-16T15:07:02.606Z,68.27
2022-11-16T15:11:48.514Z,68.92
2022-11-16T15:16:16.387Z,68.60
2022-11-16T15:20:38.021Z,67.21
2022-11-16T15:25:03.008Z,66.77
2022-11-16T15:29:21.255Z,66.58
2022-11-16T15:33:42.964Z,67.89
2022-11-16T15:38:06.577Z,67.81
2022-11-16T15:42:23.129Z,67.60
2022-11-16T15:46:40.137Z,67.19
2022-11-16T15:51:05.258Z,68.07
2022-11-16T15:55:41.916Z,68.39
2022-11-16T15:59:58.412Z,66.87
2022-11-16T16:04:18.955Z,68.29
2022-11-16T16:08:38.876Z,68.72
2022-11-16T16:12:57.860Z,70.07
2022-11-16T16:17:24.817Z,70.49
2022-11-16T16:21:47.106Z,69.49
2022-11-16T16:26:06.167Z,69.67
2022-11-16T16:30:22.460Z,68.21
2022-11-16T16:34:42.177Z,68.98
2022-11-16T16:38:58.725Z,67.82
2022-11-16T16:43:15.044Z,67.39
2022-11-16T16:47:31.658Z,67.69
2022-11-16T16:51:47.974Z,68.71
2022-11-16T16:56:04.364Z,67.93
2022-11-16T17:00:20.860Z,68.89
2022-11-16T17:04:37.194Z,67.09
2022-11-16T17:08:53.639Z,68.14
2022-11-16T17:13:11.047Z,68.90
2022-11-16T17:17:27.437Z,68.12
2022-11-16T17:21:43.965Z,68.64
2022-11-16T17:26:02.932Z,67.87
2022-11-16T17:30:19.291Z,67.39
2022-11-16T17:34:35.688Z,67.93
2022-11-16T17:38:52.135Z,68.07
2022-11-16T17:43:08.342Z,68.02
2022-11-16T17:47:24.671Z,68.24
2022-11-16T17:51:41.071Z,68.68
2022-11-16T17:55:57.348Z,67.46
2022-11-16T18:00:14.269Z,67.67
2022-11-16T18:04:30.491Z,68.03
2022-11-16T18:08:47.210Z,68.44
2022-11-16T18:13:04.715Z,68.28
2022-11-16T18:17:20.924Z,68.15
2022-11-16T18:21:40.592Z,68.32
2022-11-16T18:25:56.943Z,68.49
2022-11-16T18:30:13.877Z,68.27
2022-11-16T18:34:30.021Z,68.39
2022-11-16T18:38:46.542Z,68.16
2022-11-16T18:43:02.736Z,68.77
2022-11-16T18:47:19.312Z,68.62
2022-11-16T18:51:35.500Z,68.28
2022-11-16T18:55:57.651Z,69.50
2022-11-16T19:00:15.380Z,68.16
2022-11-16T19:04:31.575Z,67.44
2022-11-16T19:08:54.999Z,67.96
2022-11-16T19:13:13.305Z,69.71
2022-11-16T19:17:29.479Z,69.46
2022-11-16T19:21:45.652Z,69.24
2022-11-16T19:26:05.003Z,68.91
2022-11-16T19:30:21.366Z,68.47
2022-11-16T19:34:37.842Z,68.95
2022-11-16T19:38:55.591Z,68.25
2022-11-16T19:43:11.883Z,67.93
2022-11-16T19:47:29.637Z,68.81
2022-11-16T19:51:45.784Z,68.81
2022-11-16T19:56:03.580Z,69.31
2022-11-16T20:00:24.433Z,69.32
2022-11-16T20:05:00.829Z,68.57
2022-11-16T20:09:17.001Z,68.95
2022-11-16T20:13:33.572Z,68.67
2022-11-16T20:17:50.095Z,69.57
2022-11-16T20:22:06.246Z,70.34
2022-11-16T20:26:25.626Z,69.99
2022-11-16T20:30:48.567Z,70.42
2022-11-16T20:35:04.858Z,71.55
2022-11-16T20:39:21.986Z,71.60
2022-11-16T20:43:42.475Z,70.39
2022-11-16T20:48:00.247Z,70.90
2022-11-16T20:52:16.417Z,70.38
2022-11-16T20:56:33.094Z,72.59
2022-11-16T21:00:50.009Z,70.32
2022-11-16T21:05:06.619Z,70.43
2022-11-16T21:09:23.461Z,71.67
2022-11-16T21:13:58.665Z,71.48
2022-11-16T21:18:14.892Z,70.81
2022-11-16T21:22:32.388Z,69.65
2022-11-16T21:26:49.124Z,69.45
2022-11-16T21:31:13.431Z,71.95
2022-11-16T21:35:29.757Z,72.75
2022-11-16T21:39:46.183Z,71.73
2022-11-16T21:44:02.445Z,71.02
2022-11-16T21:48:18.708Z,71.14
2022-11-16T21:52:34.974Z,70.28
2022-11-16T21:56:51.348Z,69.63
2022-11-16T22:01:07.876Z,69.59
2022-11-16T22:05:42.812Z,69.03
2022-11-16T22:10:02.818Z,69.49
2022-11-16T22:14:20.291Z,69.27
2022-11-16T22:18:36.801Z,69.52
2022-11-16T22:22:52.979Z,67.93
2022-11-16T22:27:09.704Z,67.48
2022-11-16T22:31:26.363Z,67.51
2022-11-16T22:35:42.667Z,68.08
2022-11-16T22:39:58.862Z,67.88
2022-11-16T22:44:15.339Z,70.41
2022-11-16T22:48:33.672Z,71.15
2022-11-16T22:52:49.992Z,72.33
2022-11-16T22:57:06.494Z,72.15
2022-11-16T23:01:22.741Z,69.82
2022-11-16T23:05:39.008Z,70.26
2022-11-16T23:09:55.232Z,69.51
2022-11-16T23:14:32.439Z,69.76
2022-11-16T23:18:48.673Z,69.68
2022-11-16T23:23:23.516Z,68.35
2022-11-16T23:27:53.446Z,69.83
2022-11-16T23:32:09.742Z,68.15
2022-11-16T23:36:25.896Z,68.63
2022-11-16T23:40:42.215Z,68.68
2022-11-16T23:44:58.461Z,68.95
2022-11-16T23:49:14.708Z,70.00
2022-11-16T23:53:30.920Z,68.88
2022-11-16T23:57:47.105Z,69.05
